sensor_id;sensor_type;location;lat;lon;timestamp;P1;durP1;ratioP1;P2;durP2;ratioP2
52614;SDS011;38508;53.158;6.614;2022-11-15T00:01:24;31.13;;;18.88;;
52614;SDS011;38508;53.158;6.614;2022-11-15T00:03:53;31.13;;;18.50;;
52614;SDS011;38508;53.158;6.614;2022-11-15T00:06:18;32.65;;;18.08;;
52614;SDS011;38508;53.158;6.614;2022-11-15T00:08:44;32.55;;;17.42;;
52614;SDS011;38508;53.158;6.614;2022-11-15T00:11:10;27.67;;;17.02;;
52614;SDS011;38508;53.158;6.614;2022-11-15T00:13:37;28.23;;;15.98;;
52614;SDS011;38508;53.158;6.614;2022-11-15T00:16:03;27.55;;;16.92;;
52614;SDS011;38508;53.158;6.614;2022-11-15T00:18:29;33.88;;;18.38;;
52614;SDS011;38508;53.158;6.614;2022-11-15T00:20:55;32.20;;;18.38;;
52614;SDS011;38508;53.158;6.614;2022-11-15T00:23:28;25.65;;;14.85;;
52614;SDS011;38508;53.158;6.614;2022-11-15T00:25:56;33.90;;;18.70;;
52614;SDS011;38508;53.158;6.614;2022-11-15T00:28:23;30.88;;;17.90;;
52614;SDS011;38508;53.158;6.614;2022-11-15T00:30:49;31.95;;;17.00;;
52614;SDS011;38508;53.158;6.614;2022-11-15T00:33:15;31.33;;;16.85;;
52614;SDS011;38508;53.158;6.614;2022-11-15T00:35:41;36.28;;;18.48;;
52614;SDS011;38508;53.158;6.614;2022-11-15T00:38:07;35.40;;;19.73;;
52614;SDS011;38508;53.158;6.614;2022-11-15T00:40:32;37.15;;;20.02;;
52614;SDS011;38508;53.158;6.614;2022-11-15T00:42:58;32.92;;;18.27;;
52614;SDS011;38508;53.158;6.614;2022-11-15T00:45:24;35.78;;;19.30;;
52614;SDS011;38508;53.158;6.614;2022-11-15T00:47:50;36.50;;;19.65;;
52614;SDS011;38508;53.158;6.614;2022-11-15T00:50:16;33.38;;;19.25;;
52614;SDS011;38508;53.158;6.614;2022-11-15T00:52:42;37.00;;;19.40;;
52614;SDS011;38508;53.158;6.614;2022-11-15T00:55:18;33.03;;;18.75;;
52614;SDS011;38508;53.158;6.614;2022-11-15T00:57:44;31.23;;;18.85;;
52614;SDS011;38508;53.158;6.614;2022-11-15T01:00:10;33.15;;;18.23;;
52614;SDS011;38508;53.158;6.614;2022-11-15T01:02:37;33.03;;;18.30;;
52614;SDS011;38508;53.158;6.614;2022-11-15T01:05:03;29.85;;;18.10;;
52614;SDS011;38508;53.158;6.614;2022-11-15T01:07:29;34.08;;;18.58;;
52614;SDS011;38508;53.158;6.614;2022-11-15T01:09:55;36.28;;;19.70;;
52614;SDS011;38508;53.158;6.614;2022-11-15T01:12:21;32.45;;;17.75;;
52614;SDS011;38508;53.158;6.614;2022-11-15T01:14:46;31.75;;;17.80;;
52614;SDS011;38508;53.158;6.614;2022-11-15T01:17:12;32.80;;;17.73;;
52614;SDS011;38508;53.158;6.614;2022-11-15T01:19:37;33.85;;;18.83;;
52614;SDS011;38508;53.158;6.614;2022-11-15T01:22:03;35.03;;;18.73;;
52614;SDS011;38508;53.158;6.614;2022-11-15T01:24:29;35.22;;;17.70;;
52614;SDS011;38508;53.158;6.614;2022-11-15T01:26:54;31.40;;;18.02;;
52614;SDS011;38508;53.158;6.614;2022-11-15T01:29:20;32.80;;;18.48;;
52614;SDS011;38508;53.158;6.614;2022-11-15T01:31:46;32.10;;;18.05;;
52614;SDS011;38508;53.158;6.614;2022-11-15T01:34:11;36.78;;;20.90;;
52614;SDS011;38508;53.158;6.614;2022-11-15T01:36:37;37.33;;;19.88;;
52614;SDS011;38508;53.158;6.614;2022-11-15T01:39:03;35.83;;;19.83;;
52614;SDS011;38508;53.158;6.614;2022-11-15T01:41:29;48.13;;;21.58;;
52614;SDS011;38508;53.158;6.614;2022-11-15T01:44:25;34.47;;;19.25;;
52614;SDS011;38508;53.158;6.614;2022-11-15T01:47:05;39.38;;;20.52;;
52614;SDS011;38508;53.158;6.614;2022-11-15T01:52:30;37.15;;;19.73;;
52614;SDS011;38508;53.158;6.614;2022-11-15T01:57:32;35.13;;;18.88;;
52614;SDS011;38508;53.158;6.614;2022-11-15T01:59:59;37.25;;;19.65;;
52614;SDS011;38508;53.158;6.614;2022-11-15T02:02:28;35.28;;;19.00;;
52614;SDS011;38508;53.158;6.614;2022-11-15T02:04:53;35.67;;;18.58;;
52614;SDS011;38508;53.158;6.614;2022-11-15T02:07:19;33.40;;;18.20;;
52614;SDS011;38508;53.158;6.614;2022-11-15T02:09:46;35.00;;;17.50;;
52614;SDS011;38508;53.158;6.614;2022-11-15T02:12:13;37.40;;;19.58;;
52614;SDS011;38508;53.158;6.614;2022-11-15T02:14:43;35.08;;;18.20;;
52614;SDS011;38508;53.158;6.614;2022-11-15T02:22:40;35.85;;;17.60;;
52614;SDS011;38508;53.158;6.614;2022-11-15T02:41:30;40.38;;;19.55;;
52614;SDS011;38508;53.158;6.614;2022-11-15T02:44:02;42.65;;;20.17;;
52614;SDS011;38508;53.158;6.614;2022-11-15T02:46:37;41.55;;;20.58;;
52614;SDS011;38508;53.158;6.614;2022-11-15T02:49:26;41.72;;;20.00;;
52614;SDS011;38508;53.158;6.614;2022-11-15T02:51:56;45.53;;;20.98;;
52614;SDS011;38508;53.158;6.614;2022-11-15T02:54:23;42.75;;;20.13;;
52614;SDS011;38508;53.158;6.614;2022-11-15T02:57:10;47.58;;;21.77;;
52614;SDS011;38508;53.158;6.614;2022-11-15T03:02:30;42.53;;;20.60;;
52614;SDS011;38508;53.158;6.614;2022-11-15T03:11:12;43.70;;;20.65;;
52614;SDS011;38508;53.158;6.614;2022-11-15T03:19:23;40.75;;;19.52;;
52614;SDS011;38508;53.158;6.614;2022-11-15T03:21:52;46.28;;;22.30;;
52614;SDS011;38508;53.158;6.614;2022-11-15T03:24:19;41.65;;;20.10;;
52614;SDS011;38508;53.158;6.614;2022-11-15T03:26:47;45.00;;;20.83;;
52614;SDS011;38508;53.158;6.614;2022-11-15T03:29:16;41.92;;;19.10;;
52614;SDS011;38508;53.158;6.614;2022-11-15T03:31:48;42.75;;;19.83;;
52614;SDS011;38508;53.158;6.614;2022-11-15T03:36:58;41.58;;;19.45;;
52614;SDS011;38508;53.158;6.614;2022-11-15T03:39:24;40.90;;;18.92;;
52614;SDS011;38508;53.158;6.614;2022-11-15T03:50:16;40.00;;;18.42;;
52614;SDS011;38508;53.158;6.614;2022-11-15T03:52:44;43.20;;;19.20;;
52614;SDS011;38508;53.158;6.614;2022-11-15T03:55:13;40.47;;;17.92;;
52614;SDS011;38508;53.158;6.614;2022-11-15T03:57:41;48.70;;;20.92;;
52614;SDS011;38508;53.158;6.614;2022-11-15T04:00:07;42.10;;;20.10;;
52614;SDS011;38508;53.158;6.614;2022-11-15T04:02:33;51.17;;;21.75;;
52614;SDS011;38508;53.158;6.614;2022-11-15T04:04:59;42.83;;;20.38;;
52614;SDS011;38508;53.158;6.614;2022-11-15T04:07:25;55.55;;;22.67;;
52614;SDS011;38508;53.158;6.614;2022-11-15T04:09:50;51.50;;;22.85;;
52614;SDS011;38508;53.158;6.614;2022-11-15T04:12:29;48.97;;;20.25;;
52614;SDS011;38508;53.158;6.614;2022-11-15T04:17:49;48.97;;;20.58;;
52614;SDS011;38508;53.158;6.614;2022-11-15T04:26:11;53.38;;;22.25;;
52614;SDS011;38508;53.158;6.614;2022-11-15T04:28:41;54.20;;;22.75;;
52614;SDS011;38508;53.158;6.614;2022-11-15T04:31:26;73.88;;;25.80;;
52614;SDS011;38508;53.158;6.614;2022-11-15T04:33:52;53.33;;;23.10;;
52614;SDS011;38508;53.158;6.614;2022-11-15T04:36:18;51.03;;;22.13;;
52614;SDS011;38508;53.158;6.614;2022-11-15T04:39:03;50.60;;;21.80;;
52614;SDS011;38508;53.158;6.614;2022-11-15T04:41:29;52.63;;;21.50;;
52614;SDS011;38508;53.158;6.614;2022-11-15T04:43:55;56.85;;;22.90;;
52614;SDS011;38508;53.158;6.614;2022-11-15T04:46:21;59.85;;;23.67;;
52614;SDS011;38508;53.158;6.614;2022-11-15T04:48:48;64.13;;;25.38;;
52614;SDS011;38508;53.158;6.614;2022-11-15T04:51:14;60.70;;;23.55;;
52614;SDS011;38508;53.158;6.614;2022-11-15T04:53:40;81.47;;;27.98;;
52614;SDS011;38508;53.158;6.614;2022-11-15T04:56:06;61.47;;;25.42;;
52614;SDS011;38508;53.158;6.614;2022-11-15T04:58:32;58.38;;;25.38;;
52614;SDS011;38508;53.158;6.614;2022-11-15T05:00:57;76.32;;;29.48;;
52614;SDS011;38508;53.158;6.614;2022-11-15T05:03:23;81.05;;;29.08;;
52614;SDS011;38508;53.158;6.614;2022-11-15T05:06:07;70.43;;;27.45;;
52614;SDS011;38508;53.158;6.614;2022-11-15T05:08:33;71.88;;;28.95;;
52614;SDS011;38508;53.158;6.614;2022-11-15T05:10:59;100.15;;;34.03;;
52614;SDS011;38508;53.158;6.614;2022-11-15T05:13:24;74.50;;;29.50;;
52614;SDS011;38508;53.158;6.614;2022-11-15T05:15:50;67.88;;;28.05;;
52614;SDS011;38508;53.158;6.614;2022-11-15T05:18:16;66.82;;;27.25;;
52614;SDS011;38508;53.158;6.614;2022-11-15T05:20:41;75.07;;;29.23;;
52614;SDS011;38508;53.158;6.614;2022-11-15T05:23:07;91.70;;;33.00;;
52614;SDS011;38508;53.158;6.614;2022-11-15T05:25:32;107.38;;;34.60;;
52614;SDS011;38508;53.158;6.614;2022-11-15T05:27:58;102.95;;;33.40;;
52614;SDS011;38508;53.158;6.614;2022-11-15T05:30:24;76.35;;;30.63;;
52614;SDS011;38508;53.158;6.614;2022-11-15T05:32:49;71.03;;;29.92;;
52614;SDS011;38508;53.158;6.614;2022-11-15T05:35:20;65.60;;;29.00;;
52614;SDS011;38508;53.158;6.614;2022-11-15T05:37:54;93.05;;;31.88;;
52614;SDS011;38508;53.158;6.614;2022-11-15T05:40:20;118.05;;;36.35;;
52614;SDS011;38508;53.158;6.614;2022-11-15T05:42:46;85.13;;;33.47;;
52614;SDS011;38508;53.158;6.614;2022-11-15T05:45:12;89.65;;;34.10;;
52614;SDS011;38508;53.158;6.614;2022-11-15T05:47:38;122.43;;;37.90;;
52614;SDS011;38508;53.158;6.614;2022-11-15T05:50:05;132.23;;;39.05;;
52614;SDS011;38508;53.158;6.614;2022-11-15T05:52:32;136.70;;;38.78;;
52614;SDS011;38508;53.158;6.614;2022-11-15T05:55:01;102.90;;;37.10;;
52614;SDS011;38508;53.158;6.614;2022-11-15T05:57:29;98.20;;;36.35;;
52614;SDS011;38508;53.158;6.614;2022-11-15T05:59:55;97.10;;;34.97;;
52614;SDS011;38508;53.158;6.614;2022-11-15T06:02:21;108.47;;;38.33;;
52614;SDS011;38508;53.158;6.614;2022-11-15T06:04:46;92.78;;;36.80;;
52614;SDS011;38508;53.158;6.614;2022-11-15T06:07:12;84.15;;;34.63;;
52614;SDS011;38508;53.158;6.614;2022-11-15T06:09:38;87.10;;;35.45;;
52614;SDS011;38508;53.158;6.614;2022-11-15T06:12:03;106.32;;;36.72;;
52614;SDS011;38508;53.158;6.614;2022-11-15T06:14:29;93.65;;;37.00;;
52614;SDS011;38508;53.158;6.614;2022-11-15T06:16:55;87.68;;;36.42;;
52614;SDS011;38508;53.158;6.614;2022-11-15T06:19:20;90.28;;;37.00;;
52614;SDS011;38508;53.158;6.614;2022-11-15T06:21:46;84.82;;;35.50;;
52614;SDS011;38508;53.158;6.614;2022-11-15T06:24:12;97.93;;;37.33;;
52614;SDS011;38508;53.158;6.614;2022-11-15T06:26:37;83.45;;;35.45;;
52614;SDS011;38508;53.158;6.614;2022-11-15T06:29:04;100.30;;;37.92;;
52614;SDS011;38508;53.158;6.614;2022-11-15T06:31:30;74.80;;;35.63;;
52614;SDS011;38508;53.158;6.614;2022-11-15T06:33:55;74.45;;;34.92;;
52614;SDS011;38508;53.158;6.614;2022-11-15T06:36:21;85.47;;;36.47;;
52614;SDS011;38508;53.158;6.614;2022-11-15T06:38:47;96.63;;;38.08;;
52614;SDS011;38508;53.158;6.614;2022-11-15T06:41:13;92.68;;;36.45;;
52614;SDS011;38508;53.158;6.614;2022-11-15T06:43:39;95.97;;;35.45;;
52614;SDS011;38508;53.158;6.614;2022-11-15T06:46:06;100.30;;;38.22;;
52614;SDS011;38508;53.158;6.614;2022-11-15T06:48:32;77.55;;;34.78;;
52614;SDS011;38508;53.158;6.614;2022-11-15T06:50:59;96.65;;;37.70;;
52614;SDS011;38508;53.158;6.614;2022-11-15T06:53:26;112.03;;;40.20;;
52614;SDS011;38508;53.158;6.614;2022-11-15T06:55:52;94.30;;;37.45;;
52614;SDS011;38508;53.158;6.614;2022-11-15T06:58:18;91.35;;;36.95;;
52614;SDS011;38508;53.158;6.614;2022-11-15T07:00:46;92.78;;;36.72;;
52614;SDS011;38508;53.158;6.614;2022-11-15T07:03:11;92.07;;;36.80;;
52614;SDS011;38508;53.158;6.614;2022-11-15T07:05:37;85.80;;;36.83;;
52614;SDS011;38508;53.158;6.614;2022-11-15T07:08:03;82.32;;;34.97;;
52614;SDS011;38508;53.158;6.614;2022-11-15T07:10:29;99.30;;;38.25;;
52614;SDS011;38508;53.158;6.614;2022-11-15T07:12:55;119.00;;;40.63;;
52614;SDS011;38508;53.158;6.614;2022-11-15T07:15:23;123.00;;;40.72;;
52614;SDS011;38508;53.158;6.614;2022-11-15T07:17:50;113.00;;;39.47;;
52614;SDS011;38508;53.158;6.614;2022-11-15T07:20:16;94.43;;;35.95;;
52614;SDS011;38508;53.158;6.614;2022-11-15T07:22:43;81.35;;;34.60;;
52614;SDS011;38508;53.158;6.614;2022-11-15T07:25:10;80.13;;;34.22;;
52614;SDS011;38508;53.158;6.614;2022-11-15T07:27:36;76.80;;;33.90;;
52614;SDS011;38508;53.158;6.614;2022-11-15T07:30:02;98.90;;;36.03;;
52614;SDS011;38508;53.158;6.614;2022-11-15T07:32:29;81.22;;;33.45;;
52614;SDS011;38508;53.158;6.614;2022-11-15T07:34:54;87.38;;;36.22;;
52614;SDS011;38508;53.158;6.614;2022-11-15T07:37:20;105.35;;;38.75;;
52614;SDS011;38508;53.158;6.614;2022-11-15T07:39:46;89.65;;;35.15;;
52614;SDS011;38508;53.158;6.614;2022-11-15T07:42:11;79.25;;;35.17;;
52614;SDS011;38508;53.158;6.614;2022-11-15T07:44:56;84.00;;;35.75;;
52614;SDS011;38508;53.158;6.614;2022-11-15T07:47:21;93.85;;;35.50;;
52614;SDS011;38508;53.158;6.614;2022-11-15T07:49:47;74.10;;;33.05;;
52614;SDS011;38508;53.158;6.614;2022-11-15T07:52:13;104.47;;;39.00;;
52614;SDS011;38508;53.158;6.614;2022-11-15T07:54:39;76.45;;;33.92;;
52614;SDS011;38508;53.158;6.614;2022-11-15T07:57:04;85.70;;;34.30;;
52614;SDS011;38508;53.158;6.614;2022-11-15T07:59:32;80.05;;;33.88;;
52614;SDS011;38508;53.158;6.614;2022-11-15T08:01:58;82.82;;;35.63;;
52614;SDS011;38508;53.158;6.614;2022-11-15T08:04:23;64.70;;;31.08;;
52614;SDS011;38508;53.158;6.614;2022-11-15T08:06:49;83.75;;;33.22;;
52614;SDS011;38508;53.158;6.614;2022-11-15T08:09:14;78.03;;;32.95;;
52614;SDS011;38508;53.158;6.614;2022-11-15T08:11:40;75.22;;;32.45;;
52614;SDS011;38508;53.158;6.614;2022-11-15T08:14:06;71.40;;;33.13;;
52614;SDS011;38508;53.158;6.614;2022-11-15T08:16:31;62.17;;;30.83;;
52614;SDS011;38508;53.158;6.614;2022-11-15T08:18:57;59.80;;;31.23;;
52614;SDS011;38508;53.158;6.614;2022-11-15T08:21:23;61.88;;;30.88;;
52614;SDS011;38508;53.158;6.614;2022-11-15T08:23:49;56.45;;;27.95;;
52614;SDS011;38508;53.158;6.614;2022-11-15T08:26:14;60.88;;;28.60;;
52614;SDS011;38508;53.158;6.614;2022-11-15T08:28:41;59.55;;;29.65;;
52614;SDS011;38508;53.158;6.614;2022-11-15T08:31:06;64.20;;;28.55;;
52614;SDS011;38508;53.158;6.614;2022-11-15T08:33:37;64.68;;;29.90;;
52614;SDS011;38508;53.158;6.614;2022-11-15T08:36:03;49.90;;;26.83;;
52614;SDS011;38508;53.158;6.614;2022-11-15T08:38:29;45.80;;;26.23;;
52614;SDS011;38508;53.158;6.614;2022-11-15T08:40:59;47.72;;;25.90;;
52614;SDS011;38508;53.158;6.614;2022-11-15T08:43:26;52.58;;;26.08;;
52614;SDS011;38508;53.158;6.614;2022-11-15T08:45:55;49.08;;;26.45;;
52614;SDS011;38508;53.158;6.614;2022-11-15T08:48:21;49.30;;;26.30;;
52614;SDS011;38508;53.158;6.614;2022-11-15T08:50:47;50.05;;;25.33;;
52614;SDS011;38508;53.158;6.614;2022-11-15T08:53:13;46.67;;;25.23;;
52614;SDS011;38508;53.158;6.614;2022-11-15T08:55:39;45.03;;;26.73;;
52614;SDS011;38508;53.158;6.614;2022-11-15T08:58:05;44.17;;;24.05;;
52614;SDS011;38508;53.158;6.614;2022-11-15T09:00:31;49.60;;;26.00;;
52614;SDS011;38508;53.158;6.614;2022-11-15T09:02:58;43.20;;;24.70;;
52614;SDS011;38508;53.158;6.614;2022-11-15T09:05:24;41.35;;;23.35;;
52614;SDS011;38508;53.158;6.614;2022-11-15T09:07:54;39.22;;;22.02;;
52614;SDS011;38508;53.158;6.614;2022-11-15T09:10:20;40.28;;;22.27;;
52614;SDS011;38508;53.158;6.614;2022-11-15T09:12:46;40.58;;;23.52;;
52614;SDS011;38508;53.158;6.614;2022-11-15T09:15:14;38.10;;;22.30;;
52614;SDS011;38508;53.158;6.614;2022-11-15T09:17:40;39.80;;;22.55;;
52614;SDS011;38508;53.158;6.614;2022-11-15T09:20:06;36.40;;;22.17;;
52614;SDS011;38508;53.158;6.614;2022-11-15T09:22:34;38.38;;;21.75;;
52614;SDS011;38508;53.158;6.614;2022-11-15T09:25:01;37.35;;;20.23;;
52614;SDS011;38508;53.158;6.614;2022-11-15T09:27:28;39.20;;;21.40;;
52614;SDS011;38508;53.158;6.614;2022-11-15T09:29:54;36.22;;;21.58;;
52614;SDS011;38508;53.158;6.614;2022-11-15T09:32:20;37.92;;;21.60;;
52614;SDS011;38508;53.158;6.614;2022-11-15T09:34:47;38.13;;;22.90;;
52614;SDS011;38508;53.158;6.614;2022-11-15T09:37:13;39.28;;;21.23;;
52614;SDS011;38508;53.158;6.614;2022-11-15T09:39:39;36.28;;;22.17;;
52614;SDS011;38508;53.158;6.614;2022-11-15T09:42:09;41.05;;;21.25;;
52614;SDS011;38508;53.158;6.614;2022-11-15T09:50:50;38.63;;;20.90;;
52614;SDS011;38508;53.158;6.614;2022-11-15T09:55:59;32.63;;;20.05;;
52614;SDS011;38508;53.158;6.614;2022-11-15T10:01:07;38.83;;;21.65;;
52614;SDS011;38508;53.158;6.614;2022-11-15T10:03:44;39.30;;;21.42;;
52614;SDS011;38508;53.158;6.614;2022-11-15T10:06:21;41.25;;;21.92;;
52614;SDS011;38508;53.158;6.614;2022-11-15T10:11:22;34.40;;;19.98;;
52614;SDS011;38508;53.158;6.614;2022-11-15T10:16:37;34.85;;;20.30;;
52614;SDS011;38508;53.158;6.614;2022-11-15T10:19:16;29.02;;;18.98;;
52614;SDS011;38508;53.158;6.614;2022-11-15T10:24:35;34.75;;;19.10;;
52614;SDS011;38508;53.158;6.614;2022-11-15T10:27:09;29.38;;;18.30;;
52614;SDS011;38508;53.158;6.614;2022-11-15T10:29:41;34.40;;;19.90;;
52614;SDS011;38508;53.158;6.614;2022-11-15T10:32:10;31.35;;;18.88;;
52614;SDS011;38508;53.158;6.614;2022-11-15T10:34:37;30.50;;;19.42;;
52614;SDS011;38508;53.158;6.614;2022-11-15T10:37:02;29.40;;;18.90;;
52614;SDS011;38508;53.158;6.614;2022-11-15T10:39:28;35.60;;;20.60;;
52614;SDS011;38508;53.158;6.614;2022-11-15T10:41:54;28.85;;;18.05;;
52614;SDS011;38508;53.158;6.614;2022-11-15T10:44:24;30.63;;;18.33;;
52614;SDS011;38508;53.158;6.614;2022-11-15T10:49:24;28.98;;;18.10;;
52614;SDS011;38508;53.158;6.614;2022-11-15T10:52:02;34.78;;;18.95;;
52614;SDS011;38508;53.158;6.614;2022-11-15T10:54:43;32.35;;;19.92;;
52614;SDS011;38508;53.158;6.614;2022-11-15T10:57:20;32.80;;;18.85;;
52614;SDS011;38508;53.158;6.614;2022-11-15T10:59:56;33.90;;;20.50;;
52614;SDS011;38508;53.158;6.614;2022-11-15T11:04:54;34.13;;;20.27;;
52614;SDS011;38508;53.158;6.614;2022-11-15T11:07:22;33.40;;;20.70;;
52614;SDS011;38508;53.158;6.614;2022-11-15T11:10:24;29.75;;;17.80;;
52614;SDS011;38508;53.158;6.614;2022-11-15T11:12:44;31.73;;;18.08;;
52614;SDS011;38508;53.158;6.614;2022-11-15T11:15:11;30.05;;;17.77;;
52614;SDS011;38508;53.158;6.614;2022-11-15T11:20:51;40.08;;;20.50;;
52614;SDS011;38508;53.158;6.614;2022-11-15T11:26:08;23.75;;;17.02;;
52614;SDS011;38508;53.158;6.614;2022-11-15T11:34:55;25.40;;;17.50;;
52614;SDS011;38508;53.158;6.614;2022-11-15T11:37:17;27.27;;;18.52;;
52614;SDS011;38508;53.158;6.614;2022-11-15T11:40:08;28.80;;;17.60;;
52614;SDS011;38508;53.158;6.614;2022-11-15T11:43:09;27.70;;;16.10;;
52614;SDS011;38508;53.158;6.614;2022-11-15T11:48:43;23.40;;;15.27;;
52614;SDS011;38508;53.158;6.614;2022-11-15T11:51:34;19.60;;;13.93;;
52614;SDS011;38508;53.158;6.614;2022-11-15T11:54:25;20.30;;;13.02;;
52614;SDS011;38508;53.158;6.614;2022-11-15T11:56:59;19.85;;;13.05;;
52614;SDS011;38508;53.158;6.614;2022-11-15T11:59:39;17.60;;;12.02;;
52614;SDS011;38508;53.158;6.614;2022-11-15T12:05:13;13.10;;;8.85;;
52614;SDS011;38508;53.158;6.614;2022-11-15T12:07:47;14.10;;;7.85;;
52614;SDS011;38508;53.158;6.614;2022-11-15T12:10:17;12.98;;;8.10;;
52614;SDS011;38508;53.158;6.614;2022-11-15T12:12:55;15.80;;;7.90;;
52614;SDS011;38508;53.158;6.614;2022-11-15T12:15:31;11.35;;;7.90;;
52614;SDS011;38508;53.158;6.614;2022-11-15T12:18:04;10.98;;;7.43;;
52614;SDS011;38508;53.158;6.614;2022-11-15T12:20:33;14.57;;;8.40;;
52614;SDS011;38508;53.158;6.614;2022-11-15T12:23:07;12.93;;;8.13;;
52614;SDS011;38508;53.158;6.614;2022-11-15T12:25:53;15.05;;;7.95;;
52614;SDS011;38508;53.158;6.614;2022-11-15T12:31:05;16.05;;;7.15;;
52614;SDS011;38508;53.158;6.614;2022-11-15T12:33:41;9.98;;;5.88;;
52614;SDS011;38508;53.158;6.614;2022-11-15T12:38:52;11.32;;;6.70;;
52614;SDS011;38508;53.158;6.614;2022-11-15T12:41:28;9.90;;;5.80;;
52614;SDS011;38508;53.158;6.614;2022-11-15T12:43:55;11.25;;;5.90;;
52614;SDS011;38508;53.158;6.614;2022-11-15T12:48:52;10.00;;;6.78;;
52614;SDS011;38508;53.158;6.614;2022-11-15T12:51:20;11.90;;;5.80;;
52614;SDS011;38508;53.158;6.614;2022-11-15T12:53:48;7.85;;;5.05;;
52614;SDS011;38508;53.158;6.614;2022-11-15T12:58:56;6.90;;;4.32;;
52614;SDS011;38508;53.158;6.614;2022-11-15T13:04:07;7.22;;;3.90;;
52614;SDS011;38508;53.158;6.614;2022-11-15T13:06:50;7.97;;;4.05;;
52614;SDS011;38508;53.158;6.614;2022-11-15T13:11:54;8.13;;;3.75;;
52614;SDS011;38508;53.158;6.614;2022-11-15T13:17:03;10.10;;;4.60;;
52614;SDS011;38508;53.158;6.614;2022-11-15T13:19:45;6.28;;;4.07;;
52614;SDS011;38508;53.158;6.614;2022-11-15T13:22:12;7.63;;;3.67;;
52614;SDS011;38508;53.158;6.614;2022-11-15T13:24:57;7.72;;;3.92;;
52614;SDS011;38508;53.158;6.614;2022-11-15T13:27:23;8.00;;;4.50;;
52614;SDS011;38508;53.158;6.614;2022-11-15T13:29:50;8.82;;;4.60;;
52614;SDS011;38508;53.158;6.614;2022-11-15T13:32:17;9.90;;;4.50;;
52614;SDS011;38508;53.158;6.614;2022-11-15T13:34:47;12.00;;;4.82;;
52614;SDS011;38508;53.158;6.614;2022-11-15T13:39:46;11.38;;;5.15;;
52614;SDS011;38508;53.158;6.614;2022-11-15T13:42:15;10.00;;;4.90;;
52614;SDS011;38508;53.158;6.614;2022-11-15T13:44:56;6.32;;;3.88;;
52614;SDS011;38508;53.158;6.614;2022-11-15T13:47:28;10.50;;;3.97;;
52614;SDS011;38508;53.158;6.614;2022-11-15T13:49:57;7.13;;;3.28;;
52614;SDS011;38508;53.158;6.614;2022-11-15T13:52:24;9.38;;;3.65;;
52614;SDS011;38508;53.158;6.614;2022-11-15T13:55:01;7.88;;;3.25;;
52614;SDS011;38508;53.158;6.614;2022-11-15T14:00:24;6.78;;;3.67;;
52614;SDS011;38508;53.158;6.614;2022-11-15T14:02:50;6.22;;;3.15;;
52614;SDS011;38508;53.158;6.614;2022-11-15T14:05:18;6.53;;;3.10;;
52614;SDS011;38508;53.158;6.614;2022-11-15T14:07:52;8.15;;;3.40;;
52614;SDS011;38508;53.158;6.614;2022-11-15T14:10:33;6.72;;;3.00;;
52614;SDS011;38508;53.158;6.614;2022-11-15T14:13:01;9.02;;;3.35;;
52614;SDS011;38508;53.158;6.614;2022-11-15T14:15:30;6.07;;;3.40;;
52614;SDS011;38508;53.158;6.614;2022-11-15T14:17:56;6.72;;;2.60;;
52614;SDS011;38508;53.158;6.614;2022-11-15T14:22:53;6.53;;;2.78;;
52614;SDS011;38508;53.158;6.614;2022-11-15T14:25:23;6.20;;;3.17;;
52614;SDS011;38508;53.158;6.614;2022-11-15T14:30:54;6.78;;;2.83;;
52614;SDS011;38508;53.158;6.614;2022-11-15T14:33:22;5.20;;;2.50;;
52614;SDS011;38508;53.158;6.614;2022-11-15T14:35:48;4.38;;;2.33;;
52614;SDS011;38508;53.158;6.614;2022-11-15T14:38:15;4.90;;;2.20;;
52614;SDS011;38508;53.158;6.614;2022-11-15T14:40:42;3.55;;;1.75;;
52614;SDS011;38508;53.158;6.614;2022-11-15T14:43:11;5.13;;;2.42;;
52614;SDS011;38508;53.158;6.614;2022-11-15T14:45:38;4.93;;;2.30;;
52614;SDS011;38508;53.158;6.614;2022-11-15T14:48:04;3.78;;;2.10;;
52614;SDS011;38508;53.158;6.614;2022-11-15T14:50:31;4.55;;;1.95;;
52614;SDS011;38508;53.158;6.614;2022-11-15T14:52:58;3.42;;;2.10;;
52614;SDS011;38508;53.158;6.614;2022-11-15T14:55:25;5.07;;;2.20;;
52614;SDS011;38508;53.158;6.614;2022-11-15T14:57:52;4.75;;;2.03;;
52614;SDS011;38508;53.158;6.614;2022-11-15T15:00:18;3.38;;;2.28;;
52614;SDS011;38508;53.158;6.614;2022-11-15T15:02:45;6.00;;;2.33;;
52614;SDS011;38508;53.158;6.614;2022-11-15T15:07:42;3.70;;;1.95;;
52614;SDS011;38508;53.158;6.614;2022-11-15T15:10:08;6.65;;;2.20;;
52614;SDS011;38508;53.158;6.614;2022-11-15T15:12:34;4.70;;;2.20;;
52614;SDS011;38508;53.158;6.614;2022-11-15T15:15:00;6.50;;;1.90;;
52614;SDS011;38508;53.158;6.614;2022-11-15T15:17:25;6.22;;;2.28;;
52614;SDS011;38508;53.158;6.614;2022-11-15T15:19:51;4.70;;;2.00;;
52614;SDS011;38508;53.158;6.614;2022-11-15T15:22:18;5.13;;;2.60;;
52614;SDS011;38508;53.158;6.614;2022-11-15T15:24:47;4.72;;;2.45;;
52614;SDS011;38508;53.158;6.614;2022-11-15T15:27:13;5.70;;;2.85;;
52614;SDS011;38508;53.158;6.614;2022-11-15T15:29:39;3.70;;;2.45;;
52614;SDS011;38508;53.158;6.614;2022-11-15T15:32:05;7.60;;;3.20;;
52614;SDS011;38508;53.158;6.614;2022-11-15T15:34:31;4.53;;;2.75;;
52614;SDS011;38508;53.158;6.614;2022-11-15T15:37:07;11.05;;;3.50;;
52614;SDS011;38508;53.158;6.614;2022-11-15T15:39:32;5.43;;;2.73;;
52614;SDS011;38508;53.158;6.614;2022-11-15T15:41:58;7.57;;;3.28;;
52614;SDS011;38508;53.158;6.614;2022-11-15T15:44:24;6.53;;;3.53;;
52614;SDS011;38508;53.158;6.614;2022-11-15T15:46:49;6.57;;;3.67;;
52614;SDS011;38508;53.158;6.614;2022-11-15T15:49:15;7.53;;;3.22;;
52614;SDS011;38508;53.158;6.614;2022-11-15T15:51:41;5.18;;;3.30;;
52614;SDS011;38508;53.158;6.614;2022-11-15T15:54:06;4.65;;;3.45;;
52614;SDS011;38508;53.158;6.614;2022-11-15T15:56:32;8.15;;;4.13;;
52614;SDS011;38508;53.158;6.614;2022-11-15T15:58:57;6.05;;;3.80;;
52614;SDS011;38508;53.158;6.614;2022-11-15T16:01:23;6.30;;;3.88;;
52614;SDS011;38508;53.158;6.614;2022-11-15T16:03:49;6.70;;;3.92;;
52614;SDS011;38508;53.158;6.614;2022-11-15T16:06:34;7.78;;;4.40;;
52614;SDS011;38508;53.158;6.614;2022-11-15T16:09:00;8.50;;;4.30;;
52614;SDS011;38508;53.158;6.614;2022-11-15T16:11:27;10.40;;;5.00;;
52614;SDS011;38508;53.158;6.614;2022-11-15T16:13:52;11.55;;;4.53;;
52614;SDS011;38508;53.158;6.614;2022-11-15T16:16:18;7.90;;;4.55;;
52614;SDS011;38508;53.158;6.614;2022-11-15T16:18:46;7.25;;;4.80;;
52614;SDS011;38508;53.158;6.614;2022-11-15T16:21:11;8.05;;;4.72;;
52614;SDS011;38508;53.158;6.614;2022-11-15T16:23:37;8.93;;;5.13;;
52614;SDS011;38508;53.158;6.614;2022-11-15T16:26:09;8.38;;;4.75;;
52614;SDS011;38508;53.158;6.614;2022-11-15T16:28:43;9.80;;;5.28;;
52614;SDS011;38508;53.158;6.614;2022-11-15T16:31:09;8.15;;;5.47;;
52614;SDS011;38508;53.158;6.614;2022-11-15T16:33:36;7.70;;;4.82;;
52614;SDS011;38508;53.158;6.614;2022-11-15T16:36:02;9.23;;;4.97;;
52614;SDS011;38508;53.158;6.614;2022-11-15T16:38:29;6.75;;;5.28;;
52614;SDS011;38508;53.158;6.614;2022-11-15T16:40:55;7.05;;;4.88;;
52614;SDS011;38508;53.158;6.614;2022-11-15T16:43:21;8.27;;;4.90;;
52614;SDS011;38508;53.158;6.614;2022-11-15T16:45:47;8.88;;;5.88;;
52614;SDS011;38508;53.158;6.614;2022-11-15T16:48:24;7.15;;;4.93;;
52614;SDS011;38508;53.158;6.614;2022-11-15T16:50:55;7.25;;;4.90;;
52614;SDS011;38508;53.158;6.614;2022-11-15T16:53:21;7.55;;;5.50;;